sensor_id;sensor_type;location;lat;lon;timestamp;temperature;humidity
9193;DHT22;4631;49.296;10.560;2022-12-07T00:01:30;2.40;99.90
9193;DHT22;4631;49.296;10.560;2022-12-07T00:03:57;2.40;99.90
9193;DHT22;4631;49.296;10.560;2022-12-07T00:06:29;2.40;99.90
9193;DHT22;4631;49.296;10.560;2022-12-07T00:08:56;2.40;99.90
9193;DHT22;4631;49.296;10.560;2022-12-07T00:11:24;2.40;99.90
9193;DHT22;4631;49.296;10.560;2022-12-07T00:13:52;2.40;99.90
9193;DHT22;4631;49.296;10.560;2022-12-07T00:16:19;2.40;99.90
9193;DHT22;4631;49.296;10.560;2022-12-07T00:18:46;2.40;99.90
9193;DHT22;4631;49.296;10.560;2022-12-07T00:21:13;2.40;99.90
9193;DHT22;4631;49.296;10.560;2022-12-07T00:23:40;2.30;99.90
9193;DHT22;4631;49.296;10.560;2022-12-07T00:26:08;2.40;99.90
9193;DHT22;4631;49.296;10.560;2022-12-07T00:28:37;2.40;99.90
9193;DHT22;4631;49.296;10.560;2022-12-07T00:31:04;2.40;99.90
9193;DHT22;4631;49.296;10.560;2022-12-07T00:33:31;2.40;99.90
9193;DHT22;4631;49.296;10.560;2022-12-07T00:35:58;2.40;99.90
9193;DHT22;4631;49.296;10.560;2022-12-07T00:38:27;2.30;99.90
9193;DHT22;4631;49.296;10.560;2022-12-07T00:40:54;2.40;99.90
9193;DHT22;4631;49.296;10.560;2022-12-07T00:43:23;2.40;99.90
9193;DHT22;4631;49.296;10.560;2022-12-07T00:45:51;2.40;99.90
9193;DHT22;4631;49.296;10.560;2022-12-07T00:48:17;2.30;99.90
9193;DHT22;4631;49.296;10.560;2022-12-07T00:50:44;2.40;99.90
9193;DHT22;4631;49.296;10.560;2022-12-07T00:53:10;2.30;99.90
9193;DHT22;4631;49.296;10.560;2022-12-07T00:55:37;2.20;99.90
9193;DHT22;4631;49.296;10.560;2022-12-07T00:58:04;2.30;99.90
9193;DHT22;4631;49.296;10.560;2022-12-07T01:00:31;2.20;99.90
9193;DHT22;4631;49.296;10.560;2022-12-07T01:02:59;2.20;99.90
9193;DHT22;4631;49.296;10.560;2022-12-07T01:05:26;2.30;99.90
9193;DHT22;4631;49.296;10.560;2022-12-07T01:07:52;2.30;99.90
9193;DHT22;4631;49.296;10.560;2022-12-07T01:10:19;2.20;99.90
9193;DHT22;4631;49.296;10.560;2022-12-07T01:12:46;2.20;99.90
9193;DHT22;4631;49.296;10.560;2022-12-07T01:15:12;2.30;99.90
9193;DHT22;4631;49.296;10.560;2022-12-07T01:17:39;2.30;99.90
9193;DHT22;4631;49.296;10.560;2022-12-07T01:20:08;2.30;99.90
9193;DHT22;4631;49.296;10.560;2022-12-07T01:22:36;2.30;99.90
9193;DHT22;4631;49.296;10.560;2022-12-07T01:25:02;2.30;99.90
9193;DHT22;4631;49.296;10.560;2022-12-07T01:27:29;2.30;99.90
9193;DHT22;4631;49.296;10.560;2022-12-07T01:29:56;2.20;99.90
9193;DHT22;4631;49.296;10.560;2022-12-07T01:32:22;2.30;99.90
9193;DHT22;4631;49.296;10.560;2022-12-07T01:34:49;2.30;99.90
9193;DHT22;4631;49.296;10.560;2022-12-07T01:37:17;2.30;99.90
9193;DHT22;4631;49.296;10.560;2022-12-07T01:39:44;2.30;99.90
9193;DHT22;4631;49.296;10.560;2022-12-07T01:42:12;2.30;99.90
9193;DHT22;4631;49.296;10.560;2022-12-07T01:47:20;2.30;99.90
9193;DHT22;4631;49.296;10.560;2022-12-07T01:49:48;2.30;99.90
9193;DHT22;4631;49.296;10.560;2022-12-07T01:52:16;2.20;99.90
9193;DHT22;4631;49.296;10.560;2022-12-07T01:54:44;2.20;99.90
9193;DHT22;4631;49.296;10.560;2022-12-07T01:57:12;2.20;99.90
9193;DHT22;4631;49.296;10.560;2022-12-07T01:59:40;2.20;99.90
9193;DHT22;4631;49.296;10.560;2022-12-07T02:02:09;2.30;99.90
9193;DHT22;4631;49.296;10.560;2022-12-07T02:04:36;2.30;99.90
9193;DHT22;4631;49.296;10.560;2022-12-07T02:07:03;2.20;99.90
9193;DHT22;4631;49.296;10.560;2022-12-07T02:09:31;2.30;99.90
9193;DHT22;4631;49.296;10.560;2022-12-07T02:11:59;2.20;99.90
9193;DHT22;4631;49.296;10.560;2022-12-07T02:14:25;2.20;99.90
9193;DHT22;4631;49.296;10.560;2022-12-07T02:16:56;2.20;99.90
9193;DHT22;4631;49.296;10.560;2022-12-07T02:22:14;2.20;99.90
9193;DHT22;4631;49.296;10.560;2022-12-07T02:24:48;2.30;99.90
9193;DHT22;4631;49.296;10.560;2022-12-07T02:27:33;2.30;99.90
9193;DHT22;4631;49.296;10.560;2022-12-07T02:30:03;2.20;99.90
9193;DHT22;4631;49.296;10.560;2022-12-07T02:32:37;2.20;99.90
9193;DHT22;4631;49.296;10.560;2022-12-07T02:35:06;2.20;99.90
9193;DHT22;4631;49.296;10.560;2022-12-07T02:37:36;2.20;99.90
9193;DHT22;4631;49.296;10.560;2022-12-07T02:40:06;2.20;99.90
9193;DHT22;4631;49.296;10.560;2022-12-07T02:42:37;2.10;99.90
9193;DHT22;4631;49.296;10.560;2022-12-07T02:45:06;2.20;99.90
9193;DHT22;4631;49.296;10.560;2022-12-07T02:47:33;2.10;99.90
9193;DHT22;4631;49.296;10.560;2022-12-07T02:50:02;2.10;99.90
9193;DHT22;4631;49.296;10.560;2022-12-07T02:52:28;2.10;99.90
9193;DHT22;4631;49.296;10.560;2022-12-07T02:54:55;2.10;99.90
9193;DHT22;4631;49.296;10.560;2022-12-07T02:57:26;2.10;99.90
9193;DHT22;4631;49.296;10.560;2022-12-07T03:00:00;2.00;99.90
9193;DHT22;4631;49.296;10.560;2022-12-07T03:02:31;1.90;99.90
9193;DHT22;4631;49.296;10.560;2022-12-07T03:05:02;1.90;99.90
9193;DHT22;4631;49.296;10.560;2022-12-07T03:07:34;1.90;99.90
9193;DHT22;4631;49.296;10.560;2022-12-07T03:10:03;1.80;99.90
9193;DHT22;4631;49.296;10.560;2022-12-07T03:12:35;1.70;99.90
9193;DHT22;4631;49.296;10.560;2022-12-07T03:15:04;1.70;99.90
9193;DHT22;4631;49.296;10.560;2022-12-07T03:17:33;1.60;99.90
9193;DHT22;4631;49.296;10.560;2022-12-07T03:20:02;1.60;99.90
9193;DHT22;4631;49.296;10.560;2022-12-07T03:22:30;1.50;99.90
9193;DHT22;4631;49.296;10.560;2022-12-07T03:24:59;1.50;99.90
9193;DHT22;4631;49.296;10.560;2022-12-07T03:27:27;1.50;99.90
9193;DHT22;4631;49.296;10.560;2022-12-07T03:29:56;1.50;99.90
9193;DHT22;4631;49.296;10.560;2022-12-07T03:32:27;1.50;99.90
9193;DHT22;4631;49.296;10.560;2022-12-07T03:35:00;1.50;99.90
9193;DHT22;4631;49.296;10.560;2022-12-07T03:37:29;1.50;99.90
9193;DHT22;4631;49.296;10.560;2022-12-07T03:39:59;1.50;99.90
9193;DHT22;4631;49.296;10.560;2022-12-07T03:42:30;1.50;99.90
9193;DHT22;4631;49.296;10.560;2022-12-07T03:44:57;1.50;99.90
9193;DHT22;4631;49.296;10.560;2022-12-07T03:47:26;1.50;99.90
9193;DHT22;4631;49.296;10.560;2022-12-07T03:49:55;1.50;99.90
9193;DHT22;4631;49.296;10.560;2022-12-07T03:52:25;1.40;99.90
9193;DHT22;4631;49.296;10.560;2022-12-07T03:54:56;1.50;99.90
9193;DHT22;4631;49.296;10.560;2022-12-07T03:57:25;1.40;99.90
9193;DHT22;4631;49.296;10.560;2022-12-07T03:59:53;1.50;99.90
9193;DHT22;4631;49.296;10.560;2022-12-07T04:02:21;1.50;99.90
9193;DHT22;4631;49.296;10.560;2022-12-07T04:04:48;1.50;99.90
9193;DHT22;4631;49.296;10.560;2022-12-07T04:07:15;1.50;99.90
9193;DHT22;4631;49.296;10.560;2022-12-07T04:09:43;1.40;99.90
9193;DHT22;4631;49.296;10.560;2022-12-07T04:12:10;1.40;99.90
9193;DHT22;4631;49.296;10.560;2022-12-07T04:14:36;1.40;99.90
9193;DHT22;4631;49.296;10.560;2022-12-07T04:17:03;1.40;99.90
9193;DHT22;4631;49.296;10.560;2022-12-07T04:19:30;1.40;99.90
9193;DHT22;4631;49.296;10.560;2022-12-07T04:21:58;1.40;99.90
9193;DHT22;4631;49.296;10.560;2022-12-07T04:24:25;1.40;99.90
9193;DHT22;4631;49.296;10.560;2022-12-07T04:26:53;1.30;99.90
9193;DHT22;4631;49.296;10.560;2022-12-07T04:29:20;1.30;99.90
9193;DHT22;4631;49.296;10.560;2022-12-07T04:31:47;1.30;99.90
9193;DHT22;4631;49.296;10.560;2022-12-07T04:34:14;1.30;99.90
9193;DHT22;4631;49.296;10.560;2022-12-07T04:36:41;1.30;99.90
9193;DHT22;4631;49.296;10.560;2022-12-07T04:39:09;1.30;99.90
9193;DHT22;4631;49.296;10.560;2022-12-07T04:41:39;1.20;99.90
9193;DHT22;4631;49.296;10.560;2022-12-07T04:44:07;1.30;99.90
9193;DHT22;4631;49.296;10.560;2022-12-07T04:46:34;1.30;99.90
9193;DHT22;4631;49.296;10.560;2022-12-07T04:49:01;1.20;99.90
9193;DHT22;4631;49.296;10.560;2022-12-07T04:51:28;1.30;99.90
9193;DHT22;4631;49.296;10.560;2022-12-07T04:53:55;1.30;99.90
9193;DHT22;4631;49.296;10.560;2022-12-07T04:56:22;1.20;99.90
9193;DHT22;4631;49.296;10.560;2022-12-07T04:58:50;1.20;99.90
9193;DHT22;4631;49.296;10.560;2022-12-07T05:01:19;1.20;99.90
9193;DHT22;4631;49.296;10.560;2022-12-07T05:03:45;1.20;99.90
9193;DHT22;4631;49.296;10.560;2022-12-07T05:06:13;1.20;99.90
9193;DHT22;4631;49.296;10.560;2022-12-07T05:08:40;1.30;99.90
9193;DHT22;4631;49.296;10.560;2022-12-07T05:11:07;1.30;99.90
9193;DHT22;4631;49.296;10.560;2022-12-07T05:13:34;1.30;99.90
9193;DHT22;4631;49.296;10.560;2022-12-07T05:16:01;1.30;99.90
9193;DHT22;4631;49.296;10.560;2022-12-07T05:18:29;1.30;99.90
9193;DHT22;4631;49.296;10.560;2022-12-07T05:20:55;1.30;99.90
9193;DHT22;4631;49.296;10.560;2022-12-07T05:23:22;1.40;99.90
9193;DHT22;4631;49.296;10.560;2022-12-07T05:25:49;1.40;99.90
9193;DHT22;4631;49.296;10.560;2022-12-07T05:28:15;1.40;99.90
9193;DHT22;4631;49.296;10.560;2022-12-07T05:30:42;1.40;99.90
9193;DHT22;4631;49.296;10.560;2022-12-07T05:33:08;1.40;99.90
9193;DHT22;4631;49.296;10.560;2022-12-07T05:35:36;1.30;99.90
9193;DHT22;4631;49.296;10.560;2022-12-07T05:38:04;1.30;99.90
9193;DHT22;4631;49.296;10.560;2022-12-07T05:40:30;1.40;99.90
9193;DHT22;4631;49.296;10.560;2022-12-07T05:42:57;1.40;99.90
9193;DHT22;4631;49.296;10.560;2022-12-07T05:45:24;1.30;99.90
9193;DHT22;4631;49.296;10.560;2022-12-07T05:47:50;1.30;99.90
9193;DHT22;4631;49.296;10.560;2022-12-07T05:50:19;1.40;99.90
9193;DHT22;4631;49.296;10.560;2022-12-07T05:52:49;1.40;99.90
9193;DHT22;4631;49.296;10.560;2022-12-07T05:55:16;1.40;99.90
9193;DHT22;4631;49.296;10.560;2022-12-07T05:57:42;1.50;99.90
9193;DHT22;4631;49.296;10.560;2022-12-07T06:00:29;1.50;99.90
9193;DHT22;4631;49.296;10.560;2022-12-07T06:02:55;1.50;99.90
9193;DHT22;4631;49.296;10.560;2022-12-07T06:05:21;1.60;99.90
9193;DHT22;4631;49.296;10.560;2022-12-07T06:07:49;1.60;99.90
9193;DHT22;4631;49.296;10.560;2022-12-07T06:10:16;1.60;99.90
9193;DHT22;4631;49.296;10.560;2022-12-07T06:12:42;1.60;99.90
9193;DHT22;4631;49.296;10.560;2022-12-07T06:15:11;1.60;99.90
9193;DHT22;4631;49.296;10.560;2022-12-07T06:17:38;1.70;99.90
9193;DHT22;4631;49.296;10.560;2022-12-07T06:20:08;1.60;99.90
9193;DHT22;4631;49.296;10.560;2022-12-07T06:22:35;1.60;99.90
9193;DHT22;4631;49.296;10.560;2022-12-07T06:25:03;1.70;99.90
9193;DHT22;4631;49.296;10.560;2022-12-07T06:27:30;1.70;99.90
9193;DHT22;4631;49.296;10.560;2022-12-07T06:29:58;1.80;99.90
9193;DHT22;4631;49.296;10.560;2022-12-07T06:32:25;1.80;99.90
9193;DHT22;4631;49.296;10.560;2022-12-07T06:34:51;1.80;99.90
9193;DHT22;4631;49.296;10.560;2022-12-07T06:37:19;1.80;99.90
9193;DHT22;4631;49.296;10.560;2022-12-07T06:39:46;1.80;99.90
9193;DHT22;4631;49.296;10.560;2022-12-07T06:42:14;1.80;99.90
9193;DHT22;4631;49.296;10.560;2022-12-07T06:44:40;1.80;99.90
9193;DHT22;4631;49.296;10.560;2022-12-07T06:47:07;1.80;99.90
9193;DHT22;4631;49.296;10.560;2022-12-07T06:49:34;1.80;99.90
9193;DHT22;4631;49.296;10.560;2022-12-07T06:52:02;1.90;99.90
9193;DHT22;4631;49.296;10.560;2022-12-07T06:54:30;1.90;99.90
9193;DHT22;4631;49.296;10.560;2022-12-07T06:56:56;1.90;99.90
9193;DHT22;4631;49.296;10.560;2022-12-07T06:59:24;1.90;99.90
9193;DHT22;4631;49.296;10.560;2022-12-07T07:01:51;1.90;99.90
9193;DHT22;4631;49.296;10.560;2022-12-07T07:04:18;1.90;99.90
9193;DHT22;4631;49.296;10.560;2022-12-07T07:06:44;1.90;99.90
9193;DHT22;4631;49.296;10.560;2022-12-07T07:09:12;1.90;99.90
9193;DHT22;4631;49.296;10.560;2022-12-07T07:11:39;1.90;99.90
9193;DHT22;4631;49.296;10.560;2022-12-07T07:14:05;1.80;99.90
9193;DHT22;4631;49.296;10.560;2022-12-07T07:16:33;1.80;99.90
9193;DHT22;4631;49.296;10.560;2022-12-07T07:19:00;1.90;99.90
9193;DHT22;4631;49.296;10.560;2022-12-07T07:21:26;1.90;99.90
9193;DHT22;4631;49.296;10.560;2022-12-07T07:23:53;1.90;99.90
9193;DHT22;4631;49.296;10.560;2022-12-07T07:26:20;1.90;99.90
9193;DHT22;4631;49.296;10.560;2022-12-07T07:28:46;1.90;99.90
9193;DHT22;4631;49.296;10.560;2022-12-07T07:31:16;1.90;99.90
9193;DHT22;4631;49.296;10.560;2022-12-07T07:33:44;1.90;99.90
9193;DHT22;4631;49.296;10.560;2022-12-07T07:36:11;2.00;99.90
9193;DHT22;4631;49.296;10.560;2022-12-07T07:38:37;2.00;99.90
9193;DHT22;4631;49.296;10.560;2022-12-07T07:41:04;2.00;99.90
9193;DHT22;4631;49.296;10.560;2022-12-07T07:43:31;2.00;99.90
9193;DHT22;4631;49.296;10.560;2022-12-07T07:45:58;2.00;99.90
9193;DHT22;4631;49.296;10.560;2022-12-07T07:48:25;2.00;99.90
9193;DHT22;4631;49.296;10.560;2022-12-07T07:53:27;2.00;99.90
9193;DHT22;4631;49.296;10.560;2022-12-07T07:55:54;2.00;99.90
9193;DHT22;4631;49.296;10.560;2022-12-07T07:58:21;2.00;99.90
9193;DHT22;4631;49.296;10.560;2022-12-07T08:00:53;2.00;99.90
9193;DHT22;4631;49.296;10.560;2022-12-07T08:03:20;2.00;99.90
9193;DHT22;4631;49.296;10.560;2022-12-07T08:05:46;2.10;99.90
9193;DHT22;4631;49.296;10.560;2022-12-07T08:08:13;2.10;99.90
9193;DHT22;4631;49.296;10.560;2022-12-07T08:10:42;2.00;99.90
9193;DHT22;4631;49.296;10.560;2022-12-07T08:13:09;2.10;99.90
9193;DHT22;4631;49.296;10.560;2022-12-07T08:15:39;2.10;99.90
9193;DHT22;4631;49.296;10.560;2022-12-07T08:18:06;2.20;99.90
9193;DHT22;4631;49.296;10.560;2022-12-07T08:20:33;2.20;99.90
9193;DHT22;4631;49.296;10.560;2022-12-07T08:23:01;2.30;99.90
9193;DHT22;4631;49.296;10.560;2022-12-07T08:25:27;2.30;99.90
9193;DHT22;4631;49.296;10.560;2022-12-07T08:27:55;2.30;99.90
9193;DHT22;4631;49.296;10.560;2022-12-07T08:30:22;2.40;99.90
9193;DHT22;4631;49.296;10.560;2022-12-07T08:32:49;2.40;99.90
9193;DHT22;4631;49.296;10.560;2022-12-07T08:35:16;2.40;99.90
9193;DHT22;4631;49.296;10.560;2022-12-07T08:37:43;2.30;99.90
9193;DHT22;4631;49.296;10.560;2022-12-07T08:40:10;2.30;99.90
9193;DHT22;4631;49.296;10.560;2022-12-07T08:42:40;2.40;99.90
9193;DHT22;4631;49.296;10.560;2022-12-07T08:45:09;2.30;99.90
9193;DHT22;4631;49.296;10.560;2022-12-07T08:47:37;2.30;99.90
9193;DHT22;4631;49.296;10.560;2022-12-07T08:50:05;2.30;99.90
9193;DHT22;4631;49.296;10.560;2022-12-07T08:52:33;2.40;99.90
9193;DHT22;4631;49.296;10.560;2022-12-07T08:55:00;2.40;99.90
9193;DHT22;4631;49.296;10.560;2022-12-07T08:57:26;2.40;99.90
9193;DHT22;4631;49.296;10.560;2022-12-07T08:59:54;2.40;99.90
9193;DHT22;4631;49.296;10.560;2022-12-07T09:02:23;2.40;99.90
9193;DHT22;4631;49.296;10.560;2022-12-07T09:04:50;2.50;99.90
9193;DHT22;4631;49.296;10.560;2022-12-07T09:07:16;2.50;99.90
9193;DHT22;4631;49.296;10.560;2022-12-07T09:09:43;2.50;99.90
9193;DHT22;4631;49.296;10.560;2022-12-07T09:12:10;2.50;99.90
9193;DHT22;4631;49.296;10.560;2022-12-07T09:14:36;2.50;99.90
9193;DHT22;4631;49.296;10.560;2022-12-07T09:17:06;2.40;99.90
9193;DHT22;4631;49.296;10.560;2022-12-07T09:19:35;2.50;99.90
9193;DHT22;4631;49.296;10.560;2022-12-07T09:22:01;2.40;99.90
9193;DHT22;4631;49.296;10.560;2022-12-07T09:24:30;2.50;99.90
9193;DHT22;4631;49.296;10.560;2022-12-07T09:26:56;2.50;99.90
9193;DHT22;4631;49.296;10.560;2022-12-07T09:29:23;2.50;99.90
9193;DHT22;4631;49.296;10.560;2022-12-07T09:31:50;2.50;99.90
9193;DHT22;4631;49.296;10.560;2022-12-07T09:34:16;2.40;99.90
9193;DHT22;4631;49.296;10.560;2022-12-07T09:36:45;2.50;99.90
9193;DHT22;4631;49.296;10.560;2022-12-07T09:39:12;2.50;99.90
9193;DHT22;4631;49.296;10.560;2022-12-07T09:41:38;2.50;99.90
9193;DHT22;4631;49.296;10.560;2022-12-07T09:44:06;2.50;99.90
9193;DHT22;4631;49.296;10.560;2022-12-07T09:46:34;2.50;99.90
9193;DHT22;4631;49.296;10.560;2022-12-07T09:49:02;2.50;99.90
9193;DHT22;4631;49.296;10.560;2022-12-07T09:51:28;2.50;99.90
9193;DHT22;4631;49.296;10.560;2022-12-07T09:53:56;2.50;99.90
9193;DHT22;4631;49.296;10.560;2022-12-07T09:56:24;2.50;99.90
9193;DHT22;4631;49.296;10.560;2022-12-07T09:58:51;2.60;99.90
9193;DHT22;4631;49.296;10.560;2022-12-07T10:01:22;2.60;99.90
9193;DHT22;4631;49.296;10.560;2022-12-07T10:03:49;2.50;99.90
9193;DHT22;4631;49.296;10.560;2022-12-07T10:06:16;2.60;99.90
9193;DHT22;4631;49.296;10.560;2022-12-07T10:08:43;2.50;99.90
9193;DHT22;4631;49.296;10.560;2022-12-07T10:11:11;2.60;99.90
9193;DHT22;4631;49.296;10.560;2022-12-07T10:13:40;2.60;99.90
9193;DHT22;4631;49.296;10.560;2022-12-07T10:16:24;2.60;99.90
9193;DHT22;4631;49.296;10.560;2022-12-07T10:18:53;2.60;99.90
9193;DHT22;4631;49.296;10.560;2022-12-07T10:21:21;2.60;99.90
9193;DHT22;4631;49.296;10.560;2022-12-07T10:23:59;2.60;99.90
9193;DHT22;4631;49.296;10.560;2022-12-07T10:26:28;2.50;99.90
9193;DHT22;4631;49.296;10.560;2022-12-07T10:28:55;2.60;99.90
9193;DHT22;4631;49.296;10.560;2022-12-07T10:31:22;2.60;99.90
9193;DHT22;4631;49.296;10.560;2022-12-07T10:33:50;2.60;99.90
9193;DHT22;4631;49.296;10.560;2022-12-07T10:36:19;2.60;99.90
9193;DHT22;4631;49.296;10.560;2022-12-07T10:38:46;2.60;99.90
9193;DHT22;4631;49.296;10.560;2022-12-07T10:41:14;2.60;99.90
9193;DHT22;4631;49.296;10.560;2022-12-07T10:43:50;2.70;99.90
9193;DHT22;4631;49.296;10.560;2022-12-07T10:46:20;2.70;99.90
9193;DHT22;4631;49.296;10.560;2022-12-07T10:48:52;2.70;99.90
9193;DHT22;4631;49.296;10.560;2022-12-07T10:51:20;2.70;99.90
9193;DHT22;4631;49.296;10.560;2022-12-07T10:53:53;2.60;99.90
9193;DHT22;4631;49.296;10.560;2022-12-07T10:56:26;2.60;99.90
9193;DHT22;4631;49.296;10.560;2022-12-07T10:59:01;2.70;99.90
9193;DHT22;4631;49.296;10.560;2022-12-07T11:01:31;2.70;99.90
9193;DHT22;4631;49.296;10.560;2022-12-07T11:04:07;2.70;99.90
9193;DHT22;4631;49.296;10.560;2022-12-07T11:06:35;2.70;99.90
9193;DHT22;4631;49.296;10.560;2022-12-07T11:09:08;2.70;99.90
9193;DHT22;4631;49.296;10.560;2022-12-07T11:11:42;2.70;99.90
9193;DHT22;4631;49.296;10.560;2022-12-07T11:14:15;2.80;99.90
9193;DHT22;4631;49.296;10.560;2022-12-07T11:16:49;2.70;99.90
9193;DHT22;4631;49.296;10.560;2022-12-07T11:19:28;2.70;99.90
9193;DHT22;4631;49.296;10.560;2022-12-07T11:21:57;2.70;99.90
9193;DHT22;4631;49.296;10.560;2022-12-07T11:24:26;2.70;99.90
9193;DHT22;4631;49.296;10.560;2022-12-07T11:26:59;2.70;99.90
9193;DHT22;4631;49.296;10.560;2022-12-07T11:29:36;2.70;99.90
9193;DHT22;4631;49.296;10.560;2022-12-07T11:32:08;2.70;99.90
9193;DHT22;4631;49.296;10.560;2022-12-07T11:34:37;2.80;99.90
9193;DHT22;4631;49.296;10.560;2022-12-07T11:37:07;2.80;99.90
9193;DHT22;4631;49.296;10.560;2022-12-07T11:39:39;2.80;99.90
9193;DHT22;4631;49.296;10.560;2022-12-07T11:42:09;2.80;99.90
9193;DHT22;4631;49.296;10.560;2022-12-07T11:44:43;2.70;99.90
9193;DHT22;4631;49.296;10.560;2022-12-07T11:47:13;2.70;99.90
9193;DHT22;4631;49.296;10.560;2022-12-07T11:49:43;2.70;99.90
9193;DHT22;4631;49.296;10.560;2022-12-07T11:52:14;2.80;99.90
9193;DHT22;4631;49.296;10.560;2022-12-07T11:54:43;2.80;99.90
9193;DHT22;4631;49.296;10.560;2022-12-07T11:57:12;2.80;99.90
9193;DHT22;4631;49.296;10.560;2022-12-07T11:59:42;2.80;99.90
9193;DHT22;4631;49.296;10.560;2022-12-07T12:02:13;2.80;99.90
9193;DHT22;4631;49.296;10.560;2022-12-07T12:04:44;2.80;99.90
9193;DHT22;4631;49.296;10.560;2022-12-07T12:07:13;2.70;99.90
9193;DHT22;4631;49.296;10.560;2022-12-07T12:09:43;2.70;99.90
9193;DHT22;4631;49.296;10.560;2022-12-07T12:12:19;2.80;99.90
9193;DHT22;4631;49.296;10.560;2022-12-07T12:14:51;2.70;99.90
9193;DHT22;4631;49.296;10.560;2022-12-07T12:20:06;2.70;99.90
9193;DHT22;4631;49.296;10.560;2022-12-07T12:22:35;2.60;99.90
9193;DHT22;4631;49.296;10.560;2022-12-07T12:25:04;2.70;99.90
9193;DHT22;4631;49.296;10.560;2022-12-07T12:27:32;2.70;99.90
9193;DHT22;4631;49.296;10.560;2022-12-07T12:30:07;2.70;99.90
9193;DHT22;4631;49.296;10.560;2022-12-07T12:32:49;2.60;99.90
9193;DHT22;4631;49.296;10.560;2022-12-07T12:35:29;2.60;99.90
9193;DHT22;4631;49.296;10.560;2022-12-07T12:40:39;2.60;99.90
9193;DHT22;4631;49.296;10.560;2022-12-07T12:45:49;2.60;99.90
9193;DHT22;4631;49.296;10.560;2022-12-07T12:48:27;2.70;99.90
9193;DHT22;4631;49.296;10.560;2022-12-07T12:53:35;2.70;99.90
9193;DHT22;4631;49.296;10.560;2022-12-07T12:56:14;2.80;99.90
9193;DHT22;4631;49.296;10.560;2022-12-07T12:58:46;2.80;99.90
9193;DHT22;4631;49.296;10.560;2022-12-07T13:03:56;2.80;99.90
9193;DHT22;4631;49.296;10.560;2022-12-07T13:06:35;2.80;99.90
9193;DHT22;4631;49.296;10.560;2022-12-07T13:09:03;2.90;99.90
9193;DHT22;4631;49.296;10.560;2022-12-07T13:11:31;2.90;99.90
9193;DHT22;4631;49.296;10.560;2022-12-07T13:16:44;2.80;99.90
9193;DHT22;4631;49.296;10.560;2022-12-07T13:21:58;2.80;99.90
9193;DHT22;4631;49.296;10.560;2022-12-07T13:24:24;2.80;99.90
9193;DHT22;4631;49.296;10.560;2022-12-07T13:26:51;2.90;99.90
9193;DHT22;4631;49.296;10.560;2022-12-07T13:29:22;2.90;99.90
9193;DHT22;4631;49.296;10.560;2022-12-07T13:31:49;2.90;99.90
9193;DHT22;4631;49.296;10.560;2022-12-07T13:34:29;3.00;99.90
9193;DHT22;4631;49.296;10.560;2022-12-07T13:36:57;3.00;99.90
9193;DHT22;4631;49.296;10.560;2022-12-07T13:39:25;3.00;99.90
9193;DHT22;4631;49.296;10.560;2022-12-07T13:41:52;3.00;99.90
9193;DHT22;4631;49.296;10.560;2022-12-07T13:44:20;3.00;99.90
9193;DHT22;4631;49.296;10.560;2022-12-07T13:46:49;3.00;99.90
9193;DHT22;4631;49.296;10.560;2022-12-07T13:49:19;3.00;99.90
9193;DHT22;4631;49.296;10.560;2022-12-07T13:51:46;3.00;99.90
9193;DHT22;4631;49.296;10.560;2022-12-07T13:54:15;3.00;99.90
9193;DHT22;4631;49.296;10.560;2022-12-07T13:56:42;3.00;99.90
9193;DHT22;4631;49.296;10.560;2022-12-07T13:59:17;3.00;99.90
9193;DHT22;4631;49.296;10.560;2022-12-07T14:01:44;3.00;99.90
9193;DHT22;4631;49.296;10.560;2022-12-07T14:06:50;2.90;99.90
9193;DHT22;4631;49.296;10.560;2022-12-07T14:09:20;2.90;99.90
9193;DHT22;4631;49.296;10.560;2022-12-07T14:11:47;2.90;99.90
9193;DHT22;4631;49.296;10.560;2022-12-07T14:14:17;2.90;99.90
9193;DHT22;4631;49.296;10.560;2022-12-07T14:16:45;2.90;99.90
9193;DHT22;4631;49.296;10.560;2022-12-07T14:22:07;3.00;99.90
9193;DHT22;4631;49.296;10.560;2022-12-07T14:24:42;3.00;99.90
9193;DHT22;4631;49.296;10.560;2022-12-07T14:27:16;3.00;99.90
9193;DHT22;4631;49.296;10.560;2022-12-07T14:29:43;3.00;99.90
9193;DHT22;4631;49.296;10.560;2022-12-07T14:32:18;3.00;99.90
9193;DHT22;4631;49.296;10.560;2022-12-07T14:34:56;2.90;99.90
9193;DHT22;4631;49.296;10.560;2022-12-07T14:37:23;3.00;99.90
9193;DHT22;4631;49.296;10.560;2022-12-07T14:39:52;3.00;99.90
9193;DHT22;4631;49.296;10.560;2022-12-07T14:42:19;2.90;99.90
9193;DHT22;4631;49.296;10.560;2022-12-07T14:44:48;2.90;99.90
9193;DHT22;4631;49.296;10.560;2022-12-07T14:47:15;3.00;99.90
9193;DHT22;4631;49.296;10.560;2022-12-07T14:49:48;3.00;99.90
9193;DHT22;4631;49.296;10.560;2022-12-07T14:52:16;3.00;99.90
9193;DHT22;4631;49.296;10.560;2022-12-07T14:54:43;3.00;99.90
9193;DHT22;4631;49.296;10.560;2022-12-07T14:57:12;3.00;99.90
9193;DHT22;4631;49.296;10.560;2022-12-07T14:59:42;3.00;99.90
9193;DHT22;4631;49.296;10.560;2022-12-07T15:02:09;3.00;99.90
9193;DHT22;4631;49.296;10.560;2022-12-07T15:04:36;3.00;99.90
9193;DHT22;4631;49.296;10.560;2022-12-07T15:07:04;3.00;99.90
9193;DHT22;4631;49.296;10.560;2022-12-07T15:09:31;2.90;99.90
9193;DHT22;4631;49.296;10.560;2022-12-07T15:11:58;2.90;99.90
9193;DHT22;4631;49.296;10.560;2022-12-07T15:14:26;2.90;99.90
9193;DHT22;4631;49.296;10.560;2022-12-07T15:16:53;2.90;99.90
9193;DHT22;4631;49.296;10.560;2022-12-07T15:19:21;2.90;99.90
9193;DHT22;4631;49.296;10.560;2022-12-07T15:21:50;2.90;99.90
9193;DHT22;4631;49.296;10.560;2022-12-07T15:24:17;2.90;99.90
9193;DHT22;4631;49.296;10.560;2022-12-07T15:26:44;2.90;99.90
9193;DHT22;4631;49.296;10.560;2022-12-07T15:29:11;2.90;99.90
9193;DHT22;4631;49.296;10.560;2022-12-07T15:31:42;2.90;99.90
9193;DHT22;4631;49.296;10.560;2022-12-07T15:34:10;2.90;99.90
9193;DHT22;4631;49.296;10.560;2022-12-07T15:36:38;2.90;99.90
9193;DHT22;4631;49.296;10.560;2022-12-07T15:39:05;2.90;99.90
9193;DHT22;4631;49.296;10.560;2022-12-07T15:41:32;2.80;99.90
9193;DHT22;4631;49.296;10.560;2022-12-07T15:43:59;2.80;99.90
9193;DHT22;4631;49.296;10.560;2022-12-07T15:46:45;2.80;99.90
9193;DHT22;4631;49.296;10.560;2022-12-07T15:49:12;2.80;99.90
9193;DHT22;4631;49.296;10.560;2022-12-07T15:51:39;2.70;99.90
9193;DHT22;4631;49.296;10.560;2022-12-07T15:54:06;2.70;99.90
9193;DHT22;4631;49.296;10.560;2022-12-07T15:56:32;2.70;99.90
9193;DHT22;4631;49.296;10.560;2022-12-07T15:58:59;2.70;99.90
9193;DHT22;4631;49.296;10.560;2022-12-07T16:01:26;2.70;99.90
9193;DHT22;4631;49.296;10.560;2022-12-07T16:03:54;2.60;99.90
9193;DHT22;4631;49.296;10.560;2022-12-07T16:06:21;2.70;99.90
9193;DHT22;4631;49.296;10.560;2022-12-07T16:08:48;2.70;99.90
9193;DHT22;4631;49.296;10.560;2022-12-07T16:11:15;2.70;99.90
9193;DHT22;4631;49.296;10.560;2022-12-07T16:13:44;2.70;99.90
9193;DHT22;4631;49.296;10.560;2022-12-07T16:16:11;2.70;99.90
9193;DHT22;4631;49.296;10.560;2022-12-07T16:18:38;2.70;99.90
9193;DHT22;4631;49.296;10.560;2022-12-07T16:21:06;2.70;99.90
9193;DHT22;4631;49.296;10.560;2022-12-07T16:23:33;2.60;99.90
9193;DHT22;4631;49.296;10.560;2022-12-07T16:26:04;2.60;99.90
9193;DHT22;4631;49.296;10.560;2022-12-07T16:28:30;2.60;99.90
9193;DHT22;4631;49.296;10.560;2022-12-07T16:30:59;2.60;99.90
9193;DHT22;4631;49.296;10.560;2022-12-07T16:33:26;2.60;99.90
9193;DHT22;4631;49.296;10.560;2022-12-07T16:35:53;2.60;99.90
9193;DHT22;4631;49.296;10.560;2022-12-07T16:38:21;2.60;99.90
9193;DHT22;4631;49.296;10.560;2022-12-07T16:40:47;2.70;99.90
9193;DHT22;4631;49.296;10.560;2022-12-07T16:43:14;2.70;99.90